createdAt,value
2022-09-10T00:01:17.963Z,100463.97
2022-09-10T00:03:44.622Z,100455.88
2022-09-10T00:06:12.030Z,100456.41
2022-09-10T00:08:39.579Z,100461.97
2022-09-10T00:11:08.516Z,100452.78
2022-09-10T00:13:36.365Z,100460.28
2022-09-10T00:16:06.053Z,100466.34
2022-09-10T00:18:33.250Z,100473.56
2022-09-10T00:21:00.303Z,100463.03
2022-09-10T00:23:28.883Z,100460.03
2022-09-10T00:25:57.729Z,100461.44
2022-09-10T00:28:26.645Z,100469.84
2022-09-10T00:30:54.750Z,100469.31
2022-09-10T00:33:22.727Z,100466.03
2022-09-10T00:35:49.460Z,100458.53
2022-09-10T00:38:18.424Z,100468.28
2022-09-10T00:40:45.470Z,100463.56
2022-09-10T00:43:15.245Z,100463.56
2022-09-10T00:45:44.086Z,100461.66
2022-09-10T00:48:19.015Z,100462.22
2022-09-10T00:50:48.627Z,100462.81
2022-09-10T00:53:21.791Z,100461.19
2022-09-10T00:55:50.939Z,100465.66
2022-09-10T00:58:19.456Z,100472.88
2022-09-10T01:00:46.289Z,100464.53
2022-09-10T01:03:15.857Z,100474.81
2022-09-10T01:05:45.625Z,100466.22
2022-09-10T01:08:16.365Z,100464.31
2022-09-10T01:11:20.404Z,100466.00
2022-09-10T01:14:11.395Z,100468.47
2022-09-10T01:17:10.037Z,100470.16
2022-09-10T01:20:06.758Z,100461.31
2022-09-10T01:23:05.033Z,100466.88
2022-09-10T01:25:34.484Z,100464.69
2022-09-10T01:28:08.744Z,100458.63
2022-09-10T01:30:41.654Z,100458.94
2022-09-10T01:33:19.807Z,100468.69
2022-09-10T01:35:59.808Z,100459.25
2022-09-10T01:38:32.535Z,100458.72
2022-09-10T01:40:59.112Z,100456.50
2022-09-10T01:43:25.534Z,100456.50
2022-09-10T01:45:51.861Z,100457.34
2022-09-10T01:48:49.379Z,100452.94
2022-09-10T01:51:38.496Z,100450.97
2022-09-10T01:54:16.750Z,100456.50
2022-09-10T01:57:15.075Z,100448.78
2022-09-10T01:59:59.900Z,100446.84
2022-09-10T02:03:05.388Z,100447.69
2022-09-10T02:05:35.571Z,100447.41
2022-09-10T02:08:08.676Z,100440.53
2022-09-10T02:10:47.011Z,100442.16
2022-09-10T02:13:13.395Z,100433.84
2022-09-10T02:15:40.452Z,100436.09
2022-09-10T02:18:07.039Z,100441.41
2022-09-10T02:20:33.544Z,100435.59
2022-09-10T02:23:00.065Z,100438.94
2022-09-10T02:25:33.244Z,100437.84
2022-09-10T02:27:59.620Z,100435.06
2022-09-10T02:30:26.049Z,100437.25
2022-09-10T02:32:52.481Z,100435.59
2022-09-10T02:35:19.195Z,100427.25
2022-09-10T02:37:45.555Z,100426.13
2022-09-10T02:40:12.090Z,100416.72
2022-09-10T02:42:38.505Z,100423.09
2022-09-10T02:45:05.496Z,100430.59
2022-09-10T02:47:31.974Z,100435.06
2022-09-10T02:49:58.369Z,100431.19
2022-09-10T02:52:25.771Z,100423.41
2022-09-10T02:54:52.153Z,100424.25
2022-09-10T02:57:18.584Z,100420.41
2022-09-10T02:59:44.980Z,100423.72
2022-09-10T03:02:11.551Z,100423.47
2022-09-10T03:04:38.504Z,100425.72
2022-09-10T03:07:04.885Z,100429.59
2022-09-10T03:09:31.235Z,100431.28
2022-09-10T03:11:57.616Z,100429.34
2022-09-10T03:14:25.746Z,100431.00
2022-09-10T03:16:52.595Z,100432.97
2022-09-10T03:19:19.577Z,100432.63
2022-09-10T03:21:47.420Z,100434.00
2022-09-10T03:24:15.470Z,100441.25
2022-09-10T03:26:43.324Z,100433.75
2022-09-10T03:29:10.024Z,100434.59
2022-09-10T03:31:36.882Z,100430.97
2022-09-10T03:34:03.807Z,100442.94
2022-09-10T03:36:31.343Z,100437.38
2022-09-10T03:39:00.949Z,100439.03
2022-09-10T03:41:28.463Z,100430.97
2022-09-10T03:43:55.440Z,100431.81
2022-09-10T03:46:22.736Z,100429.03
2022-09-10T03:48:53.349Z,100432.63
2022-09-10T03:51:23.148Z,100429.84
2022-09-10T03:53:49.586Z,100432.38
2022-09-10T03:56:19.854Z,100433.78
2022-09-10T03:58:46.651Z,100438.53
2022-09-10T04:01:13.052Z,100435.47
2022-09-10T04:03:39.464Z,100436.06
2022-09-10T04:06:10.425Z,100430.22
2022-09-10T04:08:37.533Z,100426.34
2022-09-10T04:11:04.726Z,100424.41
2022-09-10T04:13:34.156Z,100429.13
2022-09-10T04:16:00.996Z,100430.22
2022-09-10T04:18:28.791Z,100432.47
2022-09-10T04:20:56.321Z,100431.63
2022-09-10T04:23:22.755Z,100430.53
2022-09-10T04:25:49.595Z,100430.28
2022-09-10T04:28:16.375Z,100430.28
2022-09-10T04:30:45.005Z,100438.34
2022-09-10T04:33:14.563Z,100436.94
2022-09-10T04:35:42.043Z,100436.94
2022-09-10T04:38:08.502Z,100442.75
2022-09-10T04:40:35.395Z,100441.94
2022-09-10T04:43:01.812Z,100440.25
2022-09-10T04:45:28.856Z,100430.22
2022-09-10T04:47:55.969Z,100427.44
2022-09-10T04:50:22.828Z,100436.63
2022-09-10T04:52:49.191Z,100430.22
2022-09-10T04:55:15.671Z,100433.28
2022-09-10T04:57:42.223Z,100424.34
2022-09-10T05:00:10.931Z,100437.16
2022-09-10T05:02:37.616Z,100435.47
2022-09-10T05:05:04.424Z,100440.19
2022-09-10T05:07:30.938Z,100441.88
2022-09-10T05:09:57.345Z,100439.66
2022-09-10T05:12:24.213Z,100439.66
2022-09-10T05:14:50.583Z,100453.03
2022-09-10T05:17:17.053Z,100449.44
2022-09-10T05:19:43.430Z,100447.50
2022-09-10T05:22:09.866Z,100447.50
2022-09-10T05:24:36.247Z,100444.72
2022-09-10T05:27:02.732Z,100441.09
2022-09-10T05:29:29.152Z,100454.97
2022-09-10T05:31:55.560Z,100448.84
2022-09-10T05:34:22.143Z,100458.00
2022-09-10T05:36:48.702Z,100451.63
2022-09-10T05:39:15.730Z,100453.28
2022-09-10T05:41:43.428Z,100453.03
2022-09-10T05:44:09.781Z,100464.72
2022-09-10T05:46:36.143Z,100468.66
2022-09-10T05:49:02.480Z,100465.34
2022-09-10T05:51:30.644Z,100462.06
2022-09-10T05:53:57.820Z,100469.06
2022-09-10T05:56:25.752Z,100468.78
2022-09-10T05:58:52.231Z,100476.59
2022-09-10T06:01:18.817Z,100466.91
2022-09-10T06:03:45.290Z,100466.63
2022-09-10T06:06:12.012Z,100466.13
2022-09-10T06:08:39.814Z,100477.81
2022-09-10T06:11:07.677Z,100477.28
2022-09-10T06:13:35.070Z,100483.97
2022-09-10T06:16:01.757Z,100466.22
2022-09-10T06:18:28.661Z,100465.91
2022-09-10T06:21:06.867Z,100463.44
2022-09-10T06:23:33.959Z,100469.59
2022-09-10T06:26:04.162Z,100469.91
2022-09-10T06:28:32.433Z,100469.63
2022-09-10T06:30:59.281Z,100479.13
2022-09-10T06:33:25.829Z,100495.00
2022-09-10T06:35:54.515Z,100485.28
2022-09-10T06:38:21.570Z,100486.44
2022-09-10T06:40:55.181Z,100489.28
2022-09-10T06:43:26.002Z,100487.63
2022-09-10T06:45:55.553Z,100486.00
2022-09-10T06:48:48.390Z,100489.94
2022-09-10T06:51:15.929Z,100488.84
2022-09-10T06:53:43.913Z,100487.75
2022-09-10T06:56:12.100Z,100493.66
2022-09-10T06:58:39.811Z,100493.97
2022-09-10T07:01:15.562Z,100497.59
2022-09-10T07:03:43.413Z,100494.56
2022-09-10T07:06:13.349Z,100490.78
2022-09-10T07:08:40.022Z,100493.56
2022-09-10T07:11:11.256Z,100500.28
2022-09-10T07:13:37.772Z,100500.28
2022-09-10T07:16:04.482Z,100499.72
2022-09-10T07:18:31.205Z,100500.03
2022-09-10T07:21:12.655Z,100503.66
2022-09-10T07:23:39.593Z,100504.78
2022-09-10T07:26:11.543Z,100512.28
2022-09-10T07:28:39.738Z,100514.78
2022-09-10T07:31:13.885Z,100499.97
2022-09-10T07:33:40.852Z,100510.78
2022-09-10T07:36:08.260Z,100523.56
2022-09-10T07:38:34.805Z,100524.91
2022-09-10T07:41:01.702Z,100527.66
2022-09-10T07:43:29.141Z,100532.41
2022-09-10T07:45:56.167Z,100534.03
2022-09-10T07:48:22.616Z,100536.22
2022-09-10T07:50:49.158Z,100540.66
2022-09-10T07:53:16.366Z,100534.28
2022-09-10T07:55:42.729Z,100544.81
2022-09-10T07:58:10.099Z,100538.94
2022-09-10T08:00:36.731Z,100543.13
2022-09-10T08:03:03.191Z,100544.28
2022-09-10T08:05:29.548Z,100537.34
2022-09-10T08:07:55.904Z,100542.09
2022-09-10T08:10:22.782Z,100541.00
2022-09-10T08:12:49.697Z,100539.63
2022-09-10T08:15:16.277Z,100543.63
2022-09-10T08:17:42.657Z,100542.84
2022-09-10T08:20:09.947Z,100548.50
2022-09-10T08:22:36.346Z,100548.84
2022-09-10T08:25:03.636Z,100536.38
2022-09-10T08:27:29.997Z,100537.28
2022-09-10T08:29:57.529Z,100535.34
2022-09-10T08:32:24.169Z,100546.00
2022-09-10T08:34:51.653Z,100541.56
2022-09-10T08:37:18.940Z,100534.09
2022-09-10T08:39:45.335Z,100537.50
2022-09-10T08:42:15.871Z,100536.69
2022-09-10T08:44:54.335Z,100532.50
2022-09-10T08:47:21.420Z,100534.19
2022-09-10T08:50:03.880Z,100532.50
2022-09-10T08:52:37.451Z,100535.00
2022-09-10T08:55:24.949Z,100540.34
2022-09-10T08:58:23.211Z,100533.91
2022-09-10T09:00:55.906Z,100542.56
2022-09-10T09:03:34.239Z,100534.75
2022-09-10T09:06:03.100Z,100540.91
2022-09-10T09:08:34.274Z,100544.22
2022-09-10T09:11:04.072Z,100543.41
2022-09-10T09:13:49.959Z,100538.38
2022-09-10T09:16:37.317Z,100539.75
2022-09-10T09:19:14.739Z,100540.59
2022-09-10T09:21:54.807Z,100549.00
2022-09-10T09:24:58.796Z,100546.75
2022-09-10T09:27:31.616Z,100540.06
2022-09-10T09:30:06.642Z,100546.47
2022-09-10T09:32:40.685Z,100541.75
2022-09-10T09:35:23.699Z,100540.88
2022-09-10T09:38:03.027Z,100537.25
2022-09-10T09:40:41.012Z,100555.72
2022-09-10T09:43:44.886Z,100551.25
2022-09-10T09:46:17.712Z,100552.03
2022-09-10T09:48:45.275Z,100558.50
2022-09-10T09:51:15.558Z,100564.34
2022-09-10T09:53:46.313Z,100563.50
2022-09-10T09:56:25.481Z,100559.88
2022-09-10T09:58:52.294Z,100559.91
2022-09-10T10:01:22.273Z,100564.09
2022-09-10T10:03:52.282Z,100561.56
2022-09-10T10:06:25.057Z,100564.91
2022-09-10T10:09:05.403Z,100562.66
2022-09-10T10:11:54.159Z,100558.47
2022-09-10T10:14:20.480Z,100553.72
2022-09-10T10:16:48.557Z,100552.88
2022-09-10T10:19:27.079Z,100545.34
2022-09-10T10:21:54.634Z,100537.75
2022-09-10T10:24:33.135Z,100533.75
2022-09-10T10:27:00.668Z,100524.50
2022-09-10T10:29:27.862Z,100517.16
2022-09-10T10:31:56.129Z,100519.00
2022-09-10T10:35:02.811Z,100523.94
2022-09-10T10:37:42.973Z,100516.88
2022-09-10T10:40:31.846Z,100521.81
2022-09-10T10:43:19.022Z,100515.03
2022-09-10T10:45:56.937Z,100516.94
2022-09-10T10:48:29.193Z,100510.88
2022-09-10T10:51:20.431Z,100511.41
2022-09-10T10:53:58.466Z,100526.28
2022-09-10T10:56:40.410Z,100516.09
2022-09-10T10:59:28.600Z,100519.69
2022-09-10T11:02:16.091Z,100514.69
2022-09-10T11:04:50.475Z,100520.34
2022-09-10T11:07:34.333Z,100523.66
2022-09-10T11:10:11.807Z,100517.53
2022-09-10T11:12:53.483Z,100518.66
2022-09-10T11:15:35.048Z,100512.63
2022-09-10T11:18:14.005Z,100516.59
2022-09-10T11:21:11.686Z,100532.84
2022-09-10T11:23:49.360Z,100512.41
2022-09-10T11:26:21.505Z,100519.41
2022-09-10T11:28:54.366Z,100526.16
2022-09-10T11:31:30.377Z,100525.59
2022-09-10T11:34:05.346Z,100523.84
2022-09-10T11:37:04.824Z,100529.50
2022-09-10T11:39:38.186Z,100523.25
2022-09-10T11:42:21.229Z,100518.78
2022-09-10T11:44:59.315Z,100522.72
2022-09-10T11:47:29.895Z,100526.31
2022-09-10T11:50:25.910Z,100521.47
2022-09-10T11:52:53.394Z,100511.63
2022-09-10T11:55:21.916Z,100523.34
2022-09-10T11:57:48.358Z,100520.50
2022-09-10T12:00:19.655Z,100521.56
2022-09-10T12:03:04.613Z,100513.69
2022-09-10T12:05:55.805Z,100506.34
2022-09-10T12:08:51.429Z,100498.50
2022-09-10T12:11:42.667Z,100497.59
2022-09-10T12:14:16.582Z,100502.19
2022-09-10T12:16:49.107Z,100507.19
2022-09-10T12:19:30.637Z,100504.44
2022-09-10T12:22:35.667Z,100512.84
2022-09-10T12:25:04.973Z,100500.50
2022-09-10T12:27:51.968Z,100501.59
2022-09-10T12:30:24.572Z,100503.81
2022-09-10T12:32:53.405Z,100525.78
2022-09-10T12:35:32.601Z,100542.16
2022-09-10T12:38:36.708Z,100548.25
2022-09-10T12:41:08.604Z,100550.88
2022-09-10T12:43:40.909Z,100542.81
2022-09-10T12:46:07.623Z,100536.69
2022-09-10T12:48:37.009Z,100534.72
2022-09-10T12:51:28.960Z,100543.13
2022-09-10T12:54:01.838Z,100538.41
2022-09-10T12:56:48.930Z,100540.09
2022-09-10T12:59:21.351Z,100531.69
2022-09-10T13:01:49.492Z,100539.75
2022-09-10T13:04:25.964Z,100538.63
2022-09-10T13:07:15.279Z,100533.03
2022-09-10T13:09:41.769Z,100528.56
2022-09-10T13:12:21.717Z,100526.88
2022-09-10T13:14:53.681Z,100526.88
2022-09-10T13:17:59.840Z,100521.28
2022-09-10T13:20:26.146Z,100517.97
2022-09-10T13:22:56.383Z,100504.53
2022-09-10T13:25:34.803Z,100514.28
2022-09-10T13:28:01.826Z,100512.91
2022-09-10T13:30:29.820Z,100526.84
2022-09-10T13:33:04.375Z,100520.41
2022-09-10T13:35:49.471Z,100510.00
2022-09-10T13:39:07.720Z,100513.88
2022-09-10T13:41:57.856Z,100516.09
2022-09-10T13:44:38.043Z,100506.03
2022-09-10T13:47:12.466Z,100513.84
2022-09-10T13:49:52.363Z,100506.53
2022-09-10T13:52:24.689Z,100511.88
2022-09-10T13:54:56.451Z,100513.56
2022-09-10T13:57:29.970Z,100505.44
2022-09-10T14:00:40.279Z,100502.13
2022-09-10T14:03:21.383Z,100513.03
2022-09-10T14:05:55.763Z,100513.63
2022-09-10T14:08:35.954Z,100515.56
2022-09-10T14:11:19.591Z,100521.72
2022-09-10T14:13:58.240Z,100517.88
2022-09-10T14:16:30.340Z,100524.31
2022-09-10T14:19:01.750Z,100539.44
2022-09-10T14:21:28.747Z,100529.09
2022-09-10T14:23:58.110Z,100523.25
2022-09-10T14:26:30.013Z,100529.13
2022-09-10T14:28:57.700Z,100520.19
2022-09-10T14:31:27.036Z,100513.75
2022-09-10T14:33:58.831Z,100524.09
2022-09-10T14:36:28.573Z,100514.59
2022-09-10T14:39:00.949Z,100514.03
2022-09-10T14:41:29.734Z,100515.13
2022-09-10T14:44:22.091Z,100520.13
2022-09-10T14:46:50.123Z,100514.28
2022-09-10T14:49:18.472Z,100507.81
2022-09-10T14:51:45.148Z,100506.97
2022-09-10T14:54:11.884Z,100503.06
2022-09-10T14:56:41.089Z,100500.53
2022-09-10T14:59:30.944Z,100496.63
2022-09-10T15:02:00.090Z,100497.44
2022-09-10T15:04:27.773Z,100499.97
2022-09-10T15:06:55.985Z,100500.78
2022-09-10T15:09:24.078Z,100507.28
2022-09-10T15:12:03.259Z,100501.69
2022-09-10T15:14:30.033Z,100504.75
2022-09-10T15:16:56.403Z,100501.38
2022-09-10T15:19:23.212Z,100497.47
2022-09-10T15:21:50.748Z,100503.91
2022-09-10T15:24:19.347Z,100506.69
2022-09-10T15:26:46.739Z,100505.00
2022-09-10T15:29:14.307Z,100499.41
2022-09-10T15:31:40.915Z,100512.28
2022-09-10T15:34:08.767Z,100510.88
2022-09-10T15:36:37.144Z,100513.66
2022-09-10T15:39:04.696Z,100507.22
2022-09-10T15:41:31.173Z,100513.91
2022-09-10T15:43:58.616Z,100504.09
2022-09-10T15:46:25.076Z,100508.56
2022-09-10T15:48:52.588Z,100502.91
2022-09-10T15:51:23.900Z,100500.06
2022-09-10T15:53:52.325Z,100494.69
2022-09-10T15:56:19.840Z,100490.69
2022-09-10T15:58:55.025Z,100483.81
2022-09-10T16:01:22.433Z,100485.41
2022-09-10T16:03:51.578Z,100487.03
2022-09-10T16:06:19.501Z,100497.84
2022-09-10T16:08:56.944Z,100494.41
2022-09-10T16:11:24.710Z,100503.63
2022-09-10T16:13:51.161Z,100509.75
2022-09-10T16:16:22.561Z,100500.50
2022-09-10T16:18:51.560Z,100515.97
2022-09-10T16:21:22.286Z,100511.56
2022-09-10T16:23:51.110Z,100517.47
2022-09-10T16:26:20.166Z,100520.56
2022-09-10T16:28:58.144Z,100524.47
2022-09-10T16:31:27.249Z,100524.22
2022-09-10T16:33:55.264Z,100529.50
2022-09-10T16:36:23.399Z,100526.91
2022-09-10T16:38:57.021Z,100535.53
2022-09-10T16:41:25.335Z,100531.56
2022-09-10T16:43:53.122Z,100533.00
2022-09-10T16:46:19.571Z,100539.00
2022-09-10T16:48:46.552Z,100539.75
2022-09-10T16:51:19.592Z,100545.69
2022-09-10T16:53:52.059Z,100541.81
2022-09-10T16:56:18.398Z,100545.47
2022-09-10T16:58:48.604Z,100553.44
2022-09-10T17:01:15.979Z,100542.88
2022-09-10T17:03:44.918Z,100552.47
2022-09-10T17:06:20.097Z,100535.69
2022-09-10T17:08:47.375Z,100535.97
2022-09-10T17:11:15.502Z,100539.34
2022-09-10T17:13:42.040Z,100534.06
2022-09-10T17:16:16.794Z,100539.66
2022-09-10T17:18:44.963Z,100553.94
2022-09-10T17:21:13.226Z,100545.34
2022-09-10T17:23:44.779Z,100537.22
2022-09-10T17:26:11.229Z,100535.56
2022-09-10T17:28:38.468Z,100537.81
2022-09-10T17:31:05.306Z,100533.63
2022-09-10T17:33:33.341Z,100546.19
2022-09-10T17:36:02.398Z,100548.72
2022-09-10T17:38:30.363Z,100542.59
2022-09-10T17:40:58.544Z,100547.31
2022-09-10T17:43:27.476Z,100557.09
2022-09-10T17:45:55.287Z,100561.00
2022-09-10T17:48:25.219Z,100563.78
2022-09-10T17:50:54.535Z,100564.34
2022-09-10T17:53:21.035Z,100579.72
2022-09-10T17:55:47.437Z,100573.25
2022-09-10T17:58:14.691Z,100575.22
2022-09-10T18:00:43.725Z,100579.97
2022-09-10T18:03:12.332Z,100583.31
2022-09-10T18:05:39.480Z,100583.03
2022-09-10T18:08:06.842Z,100579.66
2022-09-10T18:10:34.708Z,100577.72
2022-09-10T18:13:01.578Z,100585.22
2022-09-10T18:15:29.530Z,100586.63
2022-09-10T18:17:59.305Z,100584.66
2022-09-10T18:20:29.353Z,100585.47
2022-09-10T18:22:58.626Z,100583.78
2022-09-10T18:25:28.005Z,100585.75
2022-09-10T18:27:54.705Z,100593.78
2022-09-10T18:30:21.108Z,100593.50
2022-09-10T18:32:48.455Z,100596.00
2022-09-10T18:35:14.890Z,100594.06
2022-09-10T18:37:41.255Z,100599.03
2022-09-10T18:40:09.349Z,100603.47
2022-09-10T18:42:35.974Z,100609.84
2022-09-10T18:45:03.918Z,100615.38
2022-09-10T18:47:43.991Z,100620.97
2022-09-10T18:50:11.116Z,100616.19
2022-09-10T18:52:38.063Z,100623.13
2022-09-10T18:55:04.876Z,100622.00
2022-09-10T18:57:31.673Z,100632.56
2022-09-10T18:59:58.011Z,100632.03
2022-09-10T19:02:24.446Z,100638.94
2022-09-10T19:05:10.385Z,100633.38
2022-09-10T19:07:37.483Z,100651.47
2022-09-10T19:10:04.963Z,100651.47
2022-09-10T19:12:31.371Z,100659.84
2022-09-10T19:14:57.749Z,100659.28
2022-09-10T19:17:24.139Z,100672.63
2022-09-10T19:19:50.758Z,100670.13
2022-09-10T19:22:18.115Z,100677.91
2022-09-10T19:25:00.804Z,100679.84
2022-09-10T19:27:27.213Z,100679.28
2022-09-10T19:29:53.704Z,100692.09
2022-09-10T19:32:20.363Z,100690.97
2022-09-10T19:34:49.960Z,100697.16
2022-09-10T19:37:17.094Z,100702.91
2022-09-10T19:39:44.514Z,100709.09
2022-09-10T19:42:12.446Z,100708.81
2022-09-10T19:44:38.852Z,100709.38
2022-09-10T19:47:05.291Z,100708.00
2022-09-10T19:49:31.807Z,100709.44
2022-09-10T19:51:58.203Z,100722.84
2022-09-10T19:54:25.641Z,100717.28
2022-09-10T19:56:52.055Z,100721.22
2022-09-10T19:59:18.480Z,100730.16
2022-09-10T20:01:45.915Z,100725.72
2022-09-10T20:04:13.955Z,100729.38
2022-09-10T20:06:42.376Z,100727.13
2022-09-10T20:09:10.165Z,100731.91
2022-09-10T20:11:37.473Z,100736.34
2022-09-10T20:14:07.956Z,100734.16
2022-09-10T20:16:39.632Z,100738.63
2022-09-10T20:19:07.401Z,100733.31
2022-09-10T20:21:35.241Z,100736.94
2022-09-10T20:24:01.676Z,100735.25
2022-09-10T20:26:33.922Z,100732.22
2022-09-10T20:29:03.840Z,100736.94
2022-09-10T20:31:33.154Z,100739.72
2022-09-10T20:34:01.490Z,100735.53
2022-09-10T20:36:28.568Z,100738.59
2022-09-10T20:38:55.993Z,100744.16
2022-09-10T20:41:23.518Z,100744.16
2022-09-10T20:43:53.343Z,100742.78
2022-09-10T20:46:22.121Z,100756.47
2022-09-10T20:48:49.671Z,100748.94
2022-09-10T20:51:17.871Z,100754.78
2022-09-10T20:53:44.325Z,100762.28
2022-09-10T20:56:14.109Z,100763.97
2022-09-10T20:58:41.766Z,100764.81
2022-09-10T21:01:19.761Z,100769.81
2022-09-10T21:03:48.171Z,100773.72
2022-09-10T21:06:17.682Z,100775.91
2022-09-10T21:08:44.167Z,100773.72
2022-09-10T21:11:15.953Z,100769.81
2022-09-10T21:13:44.869Z,100779.00
2022-09-10T21:16:19.936Z,100780.97
2022-09-10T21:18:54.618Z,100789.06
2022-09-10T21:21:25.455Z,100785.19
2022-09-10T21:23:54.096Z,100788.53
2022-09-10T21:26:22.613Z,100794.94
2022-09-10T21:28:51.809Z,100793.25
2022-09-10T21:31:18.271Z,100789.91
2022-09-10T21:33:46.062Z,100795.47
2022-09-10T21:36:15.079Z,100797.19
2022-09-10T21:38:41.945Z,100797.38
2022-09-10T21:41:15.418Z,100803.78
2022-09-10T21:43:43.625Z,100802.13
2022-09-10T21:46:11.505Z,100805.19
2022-09-10T21:48:37.964Z,100803.50
2022-09-10T21:51:07.744Z,100803.19
2022-09-10T21:53:35.124Z,100810.97
2022-09-10T21:56:03.215Z,100813.19
2022-09-10T21:58:31.954Z,100814.88
2022-09-10T22:00:59.069Z,100813.19
2022-09-10T22:03:26.361Z,100825.44
2022-09-10T22:05:52.762Z,100826.56
2022-09-10T22:08:19.369Z,100828.50
2022-09-10T22:10:46.074Z,100824.31
2022-09-10T22:13:12.446Z,100831.53
2022-09-10T22:15:40.029Z,100832.66
2022-09-10T22:18:07.643Z,100828.19
2022-09-10T22:20:36.830Z,100836.22
2022-09-10T22:23:04.157Z,100842.06
2022-09-10T22:25:31.126Z,100833.38
2022-09-10T22:28:00.578Z,100830.91
2022-09-10T22:30:27.779Z,100838.72
2022-09-10T22:32:58.196Z,100839.28
2022-09-10T22:35:25.803Z,100854.66
2022-09-10T22:37:56.428Z,100853.81
2022-09-10T22:40:24.151Z,100847.94
2022-09-10T22:42:51.657Z,100850.72
2022-09-10T22:45:21.050Z,100853.50
2022-09-10T22:47:48.426Z,100859.09
2022-09-10T22:50:15.307Z,100858.00
2022-09-10T22:52:43.615Z,100857.16
2022-09-10T22:55:10.327Z,100870.84
2022-09-10T22:57:38.069Z,100881.13
2022-09-10T23:00:04.779Z,100869.97
2022-09-10T23:02:31.679Z,100869.16
2022-09-10T23:04:58.064Z,100879.19
2022-09-10T23:07:24.415Z,100879.44
2022-09-10T23:09:50.837Z,100883.91
2022-09-10T23:12:22.012Z,100880.56
2022-09-10T23:14:48.453Z,100893.66
2022-09-10T23:17:18.423Z,100897.53
2022-09-10T23:19:47.078Z,100895.00
2022-09-10T23:22:13.905Z,100892.50
2022-09-10T23:24:40.357Z,100900.25
2022-09-10T23:27:06.676Z,100905.00
2022-09-10T23:29:33.163Z,100904.19
2022-09-10T23:31:59.508Z,100905.53
2022-09-10T23:34:26.303Z,100904.34
2022-09-10T23:36:52.904Z,100915.50
2022-09-10T23:39:22.242Z,100901.84
2022-09-10T23:41:50.702Z,100913.25
2022-09-10T23:44:17.648Z,100913.25
2022-09-10T23:46:44.675Z,100911.56
2022-09-10T23:49:12.592Z,100918.25
2022-09-10T23:51:39.110Z,100922.97
2022-09-10T23:54:05.643Z,100928.53
2022-09-10T23:56:32.661Z,100919.34
2022-09-10T23:59:03.424Z,100920.44
